createdAt,value
2018-05-07T00:03:40.472Z,16.66
2018-05-07T00:08:31.493Z,16.61
2018-05-07T00:13:22.558Z,16.53
2018-05-07T00:18:13.586Z,16.43
2018-05-07T00:23:04.653Z,16.34
2018-05-07T00:27:55.679Z,16.21
2018-05-07T00:32:46.762Z,16.11
2018-05-07T00:37:37.870Z,16.03
2018-05-07T00:42:28.884Z,15.96
2018-05-07T00:47:19.988Z,15.86
2018-05-07T00:52:11.072Z,15.82
2018-05-07T00:57:02.913Z,15.70
2018-05-07T01:01:53.940Z,15.58
2018-05-07T01:06:45.815Z,15.50
2018-05-07T01:11:36.863Z,15.45
2018-05-07T01:16:27.933Z,15.39
2018-05-07T01:21:19.733Z,15.37
2018-05-07T01:26:10.787Z,15.34
2018-05-07T01:31:01.791Z,15.34
2018-05-07T01:35:52.842Z,15.22
2018-05-07T01:40:44.678Z,15.16
2018-05-07T01:45:36.825Z,15.11
2018-05-07T01:50:28.601Z,15.04
2018-05-07T01:55:19.645Z,14.98
2018-05-07T02:00:10.799Z,14.97
2018-05-07T02:05:02.508Z,14.88
2018-05-07T02:09:53.576Z,14.83
2018-05-07T02:14:44.596Z,14.78
2018-05-07T02:19:36.385Z,14.77
2018-05-07T02:24:27.463Z,14.75
2018-05-07T02:29:18.531Z,14.70
2018-05-07T02:34:09.589Z,14.64
2018-05-07T02:39:00.704Z,14.54
2018-05-07T02:43:51.648Z,14.46
2018-05-07T02:48:42.706Z,14.45
2018-05-07T02:53:33.713Z,14.40
2018-05-07T02:58:25.572Z,14.37
2018-05-07T03:03:16.610Z,14.25
2018-05-07T03:08:07.653Z,14.13
2018-05-07T03:12:58.757Z,14.08
2018-05-07T03:17:49.794Z,14.06
2018-05-07T03:22:40.849Z,13.99
2018-05-07T03:27:31.878Z,13.94
2018-05-07T03:32:22.921Z,13.86
2018-05-07T03:37:14.698Z,13.75
2018-05-07T03:42:05.792Z,13.74
2018-05-07T03:46:57.604Z,13.75
2018-05-07T03:51:48.638Z,13.68
2018-05-07T03:56:40.462Z,13.66
2018-05-07T04:01:31.501Z,13.68
2018-05-07T04:06:23.313Z,13.66
2018-05-07T04:11:14.365Z,13.66
2018-05-07T04:16:06.148Z,13.63
2018-05-07T04:21:10.767Z,13.59
2018-05-07T04:26:01.818Z,13.61
2018-05-07T04:30:52.888Z,13.64
2018-05-07T04:35:44.101Z,13.64
2018-05-07T04:40:35.144Z,13.69
2018-05-07T04:45:26.926Z,13.73
2018-05-07T04:50:17.969Z,13.77
2018-05-07T04:55:09.051Z,13.86
2018-05-07T05:00:00.093Z,13.92
2018-05-07T05:04:51.120Z,14.00
2018-05-07T05:09:42.192Z,14.07
2018-05-07T05:14:33.227Z,14.16
2018-05-07T05:19:25.021Z,14.25
2018-05-07T05:24:16.109Z,14.34
2018-05-07T05:29:07.148Z,14.46
2018-05-07T05:33:58.201Z,14.56
2018-05-07T05:38:49.269Z,14.68
2018-05-07T05:43:41.165Z,14.80
2018-05-07T05:48:32.885Z,14.92
2018-05-07T05:53:23.928Z,15.05
2018-05-07T05:58:15.001Z,15.19
2018-05-07T06:03:06.801Z,15.33
2018-05-07T06:07:57.873Z,15.46
2018-05-07T06:12:49.677Z,15.60
2018-05-07T06:17:40.705Z,15.72
2018-05-07T06:22:31.821Z,15.85
2018-05-07T06:27:22.848Z,15.99
2018-05-07T06:32:14.000Z,16.12
2018-05-07T06:37:05.852Z,16.27
2018-05-07T06:41:57.629Z,16.40
2018-05-07T06:46:48.716Z,16.57
2018-05-07T06:51:39.773Z,16.74
2018-05-07T06:56:30.879Z,17.05
2018-05-07T07:01:21.923Z,17.93
2018-05-07T07:06:12.944Z,19.61
2018-05-07T07:11:04.009Z,21.57
2018-05-07T07:15:55.097Z,23.30
2018-05-07T07:20:46.181Z,24.87
2018-05-07T07:25:37.983Z,26.27
2018-05-07T07:30:29.028Z,27.21
2018-05-07T07:35:20.086Z,27.92
2018-05-07T07:40:11.859Z,28.48
2018-05-07T07:45:02.884Z,28.82
2018-05-07T07:49:53.960Z,28.79
2018-05-07T07:54:45.743Z,29.11
2018-05-07T07:59:36.761Z,29.09
2018-05-07T08:04:27.789Z,28.92
2018-05-07T08:09:18.835Z,28.97
2018-05-07T08:14:09.892Z,28.51
2018-05-07T08:19:00.968Z,28.16
2018-05-07T08:23:52.040Z,27.97
2018-05-07T08:28:43.840Z,27.80
2018-05-07T08:33:34.879Z,27.67
2018-05-07T08:38:25.997Z,27.41
2018-05-07T08:43:17.021Z,27.35
2018-05-07T08:48:08.050Z,27.29
2018-05-07T08:52:59.155Z,27.14
2018-05-07T08:57:50.906Z,27.23
2018-05-07T09:02:41.957Z,27.24
2018-05-07T09:07:33.056Z,27.41
2018-05-07T09:12:24.093Z,27.30
2018-05-07T09:17:15.270Z,27.19
2018-05-07T09:22:06.306Z,27.31
2018-05-07T09:26:57.332Z,27.53
2018-05-07T09:31:48.369Z,27.75
2018-05-07T09:36:39.475Z,27.87
2018-05-07T09:41:30.506Z,27.74
2018-05-07T09:46:21.541Z,27.96
2018-05-07T09:51:12.575Z,28.23
2018-05-07T09:56:03.620Z,28.20
2018-05-07T10:00:54.687Z,28.15
2018-05-07T10:05:45.716Z,28.34
2018-05-07T10:10:36.774Z,28.53
2018-05-07T10:15:27.817Z,28.67
2018-05-07T10:20:19.609Z,28.96
2018-05-07T10:25:10.646Z,29.02
2018-05-07T10:30:01.734Z,29.04
2018-05-07T10:34:52.797Z,29.08
2018-05-07T10:39:43.874Z,29.18
2018-05-07T10:44:34.909Z,29.14
2018-05-07T10:49:25.955Z,29.15
2018-05-07T10:54:17.724Z,29.46
2018-05-07T10:59:08.762Z,29.70
2018-05-07T11:04:00.543Z,29.66
2018-05-07T11:08:51.614Z,29.86
2018-05-07T11:13:42.635Z,29.95
2018-05-07T11:18:33.672Z,29.72
2018-05-07T11:23:25.593Z,29.51
2018-05-07T11:28:16.636Z,29.71
2018-05-07T11:33:08.412Z,29.84
2018-05-07T11:37:59.517Z,29.79
2018-05-07T11:42:51.339Z,29.86
2018-05-07T11:47:42.419Z,30.03
2018-05-07T11:52:34.145Z,30.16
2018-05-07T11:57:25.156Z,30.24
2018-05-07T12:02:16.181Z,30.26
2018-05-07T12:07:07.276Z,30.26
2018-05-07T12:11:59.063Z,30.51
2018-05-07T12:16:50.096Z,30.25
2018-05-07T12:21:41.165Z,29.78
2018-05-07T12:26:32.942Z,30.04
2018-05-07T12:31:23.991Z,29.92
2018-05-07T12:36:15.043Z,29.74
2018-05-07T12:41:06.119Z,29.64
2018-05-07T12:45:57.142Z,29.75
2018-05-07T12:50:48.196Z,29.78
2018-05-07T12:55:39.260Z,29.69
2018-05-07T13:00:30.313Z,29.48
2018-05-07T13:05:21.343Z,29.28
2018-05-07T13:10:12.394Z,29.04
2018-05-07T13:15:03.422Z,29.33
2018-05-07T13:19:54.485Z,29.64
2018-05-07T13:24:45.524Z,29.45
2018-05-07T13:29:36.600Z,29.32
2018-05-07T13:34:27.687Z,29.54
2018-05-07T13:39:18.709Z,29.66
2018-05-07T13:44:09.769Z,29.86
2018-05-07T13:49:01.640Z,29.91
2018-05-07T13:53:52.691Z,29.66
2018-05-07T13:58:43.752Z,29.51
2018-05-07T14:03:34.815Z,29.51
2018-05-07T14:08:26.654Z,29.57
2018-05-07T14:13:17.692Z,29.48
2018-05-07T14:18:08.706Z,29.27
2018-05-07T14:22:59.761Z,29.08
2018-05-07T14:27:50.813Z,28.97
2018-05-07T14:32:41.940Z,28.79
2018-05-07T14:37:33.755Z,28.79
2018-05-07T14:42:24.796Z,29.00
2018-05-07T14:47:15.824Z,29.04
2018-05-07T14:52:06.926Z,29.12
2018-05-07T14:56:57.962Z,29.07
2018-05-07T15:01:49.030Z,29.19
2018-05-07T15:06:40.843Z,29.28
2018-05-07T15:11:31.901Z,29.32
2018-05-07T15:16:22.964Z,29.05
2018-05-07T15:21:14.020Z,28.67
2018-05-07T15:26:05.888Z,28.44
2018-05-07T15:30:56.938Z,28.53
2018-05-07T15:35:48.014Z,28.50
2018-05-07T15:40:39.850Z,28.20
2018-05-07T15:45:30.872Z,28.06
2018-05-07T15:50:21.951Z,28.24
2018-05-07T15:55:12.985Z,28.21
2018-05-07T16:00:04.068Z,28.08
2018-05-07T16:04:55.108Z,27.87
2018-05-07T16:09:46.980Z,27.94
2018-05-07T16:14:38.034Z,27.96
2018-05-07T16:19:29.111Z,27.89
2018-05-07T16:24:20.153Z,27.71
2018-05-07T16:29:11.204Z,27.69
2018-05-07T16:34:02.970Z,27.78
2018-05-07T16:38:54.064Z,27.62
2018-05-07T16:43:45.868Z,27.59
2018-05-07T16:48:37.008Z,27.51
2018-05-07T16:53:28.000Z,27.51
2018-05-07T16:58:19.055Z,27.48
2018-05-07T17:03:10.114Z,27.43
2018-05-07T17:08:01.929Z,27.31
2018-05-07T17:12:52.955Z,27.29
2018-05-07T17:17:44.012Z,27.23
2018-05-07T17:22:35.800Z,27.07
2018-05-07T17:27:26.906Z,26.88
2018-05-07T17:32:17.945Z,26.83
2018-05-07T17:37:08.964Z,26.73
2018-05-07T17:42:00.041Z,26.69
2018-05-07T17:47:10.689Z,26.57
2018-05-07T17:52:01.746Z,26.48
2018-05-07T17:56:53.520Z,26.38
2018-05-07T18:01:44.601Z,26.31
2018-05-07T18:06:36.397Z,26.21
2018-05-07T18:11:27.447Z,26.11
2018-05-07T18:16:18.609Z,25.98
2018-05-07T18:21:09.726Z,25.88
2018-05-07T18:26:00.736Z,25.80
2018-05-07T18:30:52.525Z,25.69
2018-05-07T18:35:43.554Z,25.61
2018-05-07T18:40:34.661Z,25.51
2018-05-07T18:45:25.706Z,25.40
2018-05-07T18:50:16.798Z,25.31
2018-05-07T18:55:07.833Z,25.19
2018-05-07T18:59:58.860Z,25.17
2018-05-07T19:04:51.354Z,25.17
2018-05-07T19:09:42.408Z,25.05
2018-05-07T19:14:34.228Z,24.80
2018-05-07T19:19:25.268Z,24.63
2018-05-07T19:24:17.032Z,24.44
2018-05-07T19:29:08.065Z,24.31
2018-05-07T19:33:59.124Z,24.22
2018-05-07T19:38:50.190Z,24.10
2018-05-07T19:43:41.226Z,24.00
2018-05-07T19:48:33.100Z,23.91
2018-05-07T19:53:24.845Z,23.77
2018-05-07T19:58:15.881Z,23.61
2018-05-07T20:03:06.955Z,23.48
2018-05-07T20:07:58.027Z,23.37
2018-05-07T20:12:49.069Z,23.20
2018-05-07T20:17:40.839Z,23.10
2018-05-07T20:22:31.980Z,23.04
2018-05-07T20:27:23.109Z,22.94
2018-05-07T20:32:14.173Z,22.81
2018-05-07T20:37:05.231Z,22.65
2018-05-07T20:41:56.277Z,22.48
2018-05-07T20:46:47.348Z,22.34
2018-05-07T20:51:39.155Z,22.20
2018-05-07T20:56:30.212Z,22.07
2018-05-07T21:01:21.428Z,21.89
2018-05-07T21:06:12.512Z,21.77
2018-05-07T21:11:03.565Z,21.76
2018-05-07T21:15:54.658Z,21.79
2018-05-07T21:20:45.669Z,21.75
2018-05-07T21:25:36.788Z,21.74
2018-05-07T21:30:27.743Z,21.64
2018-05-07T21:35:18.820Z,21.52
2018-05-07T21:40:10.625Z,21.39
2018-05-07T21:45:01.710Z,21.31
2018-05-07T21:49:52.769Z,21.16
2018-05-07T21:54:43.800Z,21.04
2018-05-07T21:59:34.871Z,20.98
2018-05-07T22:04:25.910Z,20.90
2018-05-07T22:09:16.943Z,20.81
2018-05-07T22:14:07.995Z,20.69
2018-05-07T22:18:59.027Z,20.63
2018-05-07T22:23:50.105Z,20.52
2018-05-07T22:28:41.164Z,20.39
2018-05-07T22:33:32.236Z,20.31
2018-05-07T22:38:24.009Z,20.21
2018-05-07T22:43:15.035Z,20.08
2018-05-07T22:48:06.080Z,19.99
2018-05-07T22:52:57.112Z,19.89
2018-05-07T22:57:48.138Z,19.76
2018-05-07T23:02:39.177Z,19.68
2018-05-07T23:07:30.973Z,19.61
2018-05-07T23:12:22.007Z,19.56
2018-05-07T23:17:13.063Z,19.44
2018-05-07T23:22:04.951Z,19.28
2018-05-07T23:26:56.049Z,19.21
2018-05-07T23:31:47.868Z,19.11
2018-05-07T23:36:39.685Z,19.02
2018-05-07T23:41:30.716Z,19.00
2018-05-07T23:46:22.515Z,18.89
2018-05-07T23:51:13.576Z,18.84
2018-05-07T23:56:04.678Z,18.76
